sensor_id;sensor_type;location;lat;lon;timestamp;temperature;humidity
37782;DHT22;23621;50.878;4.584;2023-04-24T00:02:37;16.50;72.10
37782;DHT22;23621;50.878;4.584;2023-04-24T00:05:25;16.60;72.90
37782;DHT22;23621;50.878;4.584;2023-04-24T00:08:12;16.60;72.10
37782;DHT22;23621;50.878;4.584;2023-04-24T00:11:00;16.60;71.90
37782;DHT22;23621;50.878;4.584;2023-04-24T00:13:47;16.60;72.00
37782;DHT22;23621;50.878;4.584;2023-04-24T00:16:34;16.70;72.00
37782;DHT22;23621;50.878;4.584;2023-04-24T00:19:21;16.80;72.00
37782;DHT22;23621;50.878;4.584;2023-04-24T00:22:08;16.80;71.70
37782;DHT22;23621;50.878;4.584;2023-04-24T00:24:57;16.80;71.60
37782;DHT22;23621;50.878;4.584;2023-04-24T00:27:45;16.70;71.80
37782;DHT22;23621;50.878;4.584;2023-04-24T00:30:32;16.60;71.90
37782;DHT22;23621;50.878;4.584;2023-04-24T00:33:19;16.60;71.80
37782;DHT22;23621;50.878;4.584;2023-04-24T00:36:07;16.70;72.00
37782;DHT22;23621;50.878;4.584;2023-04-24T00:38:54;16.60;72.30
37782;DHT22;23621;50.878;4.584;2023-04-24T00:41:42;16.50;72.40
37782;DHT22;23621;50.878;4.584;2023-04-24T00:44:29;16.40;72.50
37782;DHT22;23621;50.878;4.584;2023-04-24T00:47:16;16.50;72.80
37782;DHT22;23621;50.878;4.584;2023-04-24T00:50:06;16.40;72.80
37782;DHT22;23621;50.878;4.584;2023-04-24T00:52:54;16.40;72.80
37782;DHT22;23621;50.878;4.584;2023-04-24T00:55:41;16.40;72.90
37782;DHT22;23621;50.878;4.584;2023-04-24T00:58:29;16.30;72.90
37782;DHT22;23621;50.878;4.584;2023-04-24T01:01:20;16.30;73.10
37782;DHT22;23621;50.878;4.584;2023-04-24T01:04:08;16.30;73.00
37782;DHT22;23621;50.878;4.584;2023-04-24T01:06:57;16.30;72.90
37782;DHT22;23621;50.878;4.584;2023-04-24T01:09:45;16.40;72.80
37782;DHT22;23621;50.878;4.584;2023-04-24T01:12:35;16.40;72.80
37782;DHT22;23621;50.878;4.584;2023-04-24T01:15:23;16.40;72.60
37782;DHT22;23621;50.878;4.584;2023-04-24T01:18:10;16.30;72.70
37782;DHT22;23621;50.878;4.584;2023-04-24T01:20:59;16.30;72.80
37782;DHT22;23621;50.878;4.584;2023-04-24T01:23:46;16.20;72.70
37782;DHT22;23621;50.878;4.584;2023-04-24T01:26:34;16.30;73.00
37782;DHT22;23621;50.878;4.584;2023-04-24T01:29:21;16.20;73.10
37782;DHT22;23621;50.878;4.584;2023-04-24T01:32:08;16.30;73.00
37782;DHT22;23621;50.878;4.584;2023-04-24T01:34:56;16.30;72.90
37782;DHT22;23621;50.878;4.584;2023-04-24T01:37:43;16.30;72.80
37782;DHT22;23621;50.878;4.584;2023-04-24T01:40:32;16.40;72.90
37782;DHT22;23621;50.878;4.584;2023-04-24T01:43:19;16.40;72.90
37782;DHT22;23621;50.878;4.584;2023-04-24T01:46:07;16.30;73.10
37782;DHT22;23621;50.878;4.584;2023-04-24T01:48:54;16.30;73.10
37782;DHT22;23621;50.878;4.584;2023-04-24T01:51:43;16.20;73.20
37782;DHT22;23621;50.878;4.584;2023-04-24T01:54:30;16.20;73.20
37782;DHT22;23621;50.878;4.584;2023-04-24T01:57:17;16.30;73.00
37782;DHT22;23621;50.878;4.584;2023-04-24T02:00:05;16.30;72.90
37782;DHT22;23621;50.878;4.584;2023-04-24T02:02:53;16.20;72.70
37782;DHT22;23621;50.878;4.584;2023-04-24T02:05:44;16.20;72.80
37782;DHT22;23621;50.878;4.584;2023-04-24T02:08:31;16.20;73.00
37782;DHT22;23621;50.878;4.584;2023-04-24T02:11:19;16.20;73.00
37782;DHT22;23621;50.878;4.584;2023-04-24T02:14:06;16.20;73.00
37782;DHT22;23621;50.878;4.584;2023-04-24T02:16:53;16.10;73.00
37782;DHT22;23621;50.878;4.584;2023-04-24T02:19:41;16.00;73.40
37782;DHT22;23621;50.878;4.584;2023-04-24T02:22:28;16.00;73.50
37782;DHT22;23621;50.878;4.584;2023-04-24T02:25:16;16.10;73.60
37782;DHT22;23621;50.878;4.584;2023-04-24T02:28:03;16.00;73.60
37782;DHT22;23621;50.878;4.584;2023-04-24T02:30:50;16.10;73.70
37782;DHT22;23621;50.878;4.584;2023-04-24T02:33:37;16.00;73.70
37782;DHT22;23621;50.878;4.584;2023-04-24T02:36:25;15.90;73.80
37782;DHT22;23621;50.878;4.584;2023-04-24T02:39:12;16.00;73.90
37782;DHT22;23621;50.878;4.584;2023-04-24T02:42:00;16.10;73.90
37782;DHT22;23621;50.878;4.584;2023-04-24T02:44:48;16.10;73.70
37782;DHT22;23621;50.878;4.584;2023-04-24T02:47:35;16.00;73.70
37782;DHT22;23621;50.878;4.584;2023-04-24T02:50:23;15.90;74.00
37782;DHT22;23621;50.878;4.584;2023-04-24T02:53:10;15.90;74.10
37782;DHT22;23621;50.878;4.584;2023-04-24T02:55:57;15.90;74.30
37782;DHT22;23621;50.878;4.584;2023-04-24T02:58:44;15.90;74.30
37782;DHT22;23621;50.878;4.584;2023-04-24T03:01:31;15.90;74.50
37782;DHT22;23621;50.878;4.584;2023-04-24T03:04:19;15.90;74.50
37782;DHT22;23621;50.878;4.584;2023-04-24T03:07:07;15.90;74.50
37782;DHT22;23621;50.878;4.584;2023-04-24T03:09:54;15.90;74.40
37782;DHT22;23621;50.878;4.584;2023-04-24T03:12:41;15.90;74.30
37782;DHT22;23621;50.878;4.584;2023-04-24T03:15:28;15.90;74.30
37782;DHT22;23621;50.878;4.584;2023-04-24T03:18:16;15.90;74.50
37782;DHT22;23621;50.878;4.584;2023-04-24T03:21:03;15.90;74.30
37782;DHT22;23621;50.878;4.584;2023-04-24T03:23:50;15.90;74.20
37782;DHT22;23621;50.878;4.584;2023-04-24T03:26:37;15.90;74.20
37782;DHT22;23621;50.878;4.584;2023-04-24T03:29:24;16.00;74.20
37782;DHT22;23621;50.878;4.584;2023-04-24T03:32:12;15.90;74.30
37782;DHT22;23621;50.878;4.584;2023-04-24T03:34:59;15.90;74.30
37782;DHT22;23621;50.878;4.584;2023-04-24T03:37:46;15.90;74.30
37782;DHT22;23621;50.878;4.584;2023-04-24T03:40:33;16.00;74.30
37782;DHT22;23621;50.878;4.584;2023-04-24T03:43:21;16.00;74.30
37782;DHT22;23621;50.878;4.584;2023-04-24T03:46:08;15.90;74.40
37782;DHT22;23621;50.878;4.584;2023-04-24T03:48:56;16.00;74.60
37782;DHT22;23621;50.878;4.584;2023-04-24T03:51:43;16.00;74.70
37782;DHT22;23621;50.878;4.584;2023-04-24T03:54:30;15.90;74.70
37782;DHT22;23621;50.878;4.584;2023-04-24T03:57:18;15.80;75.20
37782;DHT22;23621;50.878;4.584;2023-04-24T04:00:05;15.60;75.40
37782;DHT22;23621;50.878;4.584;2023-04-24T04:02:53;15.50;75.90
37782;DHT22;23621;50.878;4.584;2023-04-24T04:05:41;15.30;76.50
37782;DHT22;23621;50.878;4.584;2023-04-24T04:08:28;15.40;76.60
37782;DHT22;23621;50.878;4.584;2023-04-24T04:11:15;15.30;76.60
37782;DHT22;23621;50.878;4.584;2023-04-24T04:14:02;15.30;76.80
37782;DHT22;23621;50.878;4.584;2023-04-24T04:16:49;15.20;76.80
37782;DHT22;23621;50.878;4.584;2023-04-24T04:19:40;15.20;77.00
37782;DHT22;23621;50.878;4.584;2023-04-24T04:22:28;15.20;77.00
37782;DHT22;23621;50.878;4.584;2023-04-24T04:25:15;15.20;77.10
37782;DHT22;23621;50.878;4.584;2023-04-24T04:28:02;15.10;77.20
37782;DHT22;23621;50.878;4.584;2023-04-24T04:30:50;15.00;77.20
37782;DHT22;23621;50.878;4.584;2023-04-24T04:33:40;15.10;77.20
37782;DHT22;23621;50.878;4.584;2023-04-24T04:36:27;15.10;77.30
37782;DHT22;23621;50.878;4.584;2023-04-24T04:39:16;15.00;77.40
37782;DHT22;23621;50.878;4.584;2023-04-24T04:42:05;15.10;77.70
37782;DHT22;23621;50.878;4.584;2023-04-24T04:44:53;15.10;77.40
37782;DHT22;23621;50.878;4.584;2023-04-24T04:47:40;15.10;77.30
37782;DHT22;23621;50.878;4.584;2023-04-24T04:50:28;15.00;77.60
37782;DHT22;23621;50.878;4.584;2023-04-24T04:53:15;15.10;77.30
37782;DHT22;23621;50.878;4.584;2023-04-24T04:56:02;15.20;77.10
37782;DHT22;23621;50.878;4.584;2023-04-24T04:58:49;15.10;77.10
37782;DHT22;23621;50.878;4.584;2023-04-24T05:01:37;15.10;77.20
37782;DHT22;23621;50.878;4.584;2023-04-24T05:04:24;15.00;77.00
37782;DHT22;23621;50.878;4.584;2023-04-24T05:07:12;15.00;77.00
37782;DHT22;23621;50.878;4.584;2023-04-24T05:09:59;14.90;76.90
37782;DHT22;23621;50.878;4.584;2023-04-24T05:12:47;15.10;76.80
37782;DHT22;23621;50.878;4.584;2023-04-24T05:15:34;15.00;76.80
37782;DHT22;23621;50.878;4.584;2023-04-24T05:18:21;15.00;77.00
37782;DHT22;23621;50.878;4.584;2023-04-24T05:21:08;15.10;76.80
37782;DHT22;23621;50.878;4.584;2023-04-24T05:23:55;15.20;76.80
37782;DHT22;23621;50.878;4.584;2023-04-24T05:26:43;15.00;76.60
37782;DHT22;23621;50.878;4.584;2023-04-24T05:29:30;15.10;77.40
37782;DHT22;23621;50.878;4.584;2023-04-24T05:32:18;15.10;76.40
37782;DHT22;23621;50.878;4.584;2023-04-24T05:35:06;15.10;76.50
37782;DHT22;23621;50.878;4.584;2023-04-24T05:37:53;15.10;76.50
37782;DHT22;23621;50.878;4.584;2023-04-24T05:40:40;14.90;76.50
37782;DHT22;23621;50.878;4.584;2023-04-24T05:43:27;14.90;76.50
37782;DHT22;23621;50.878;4.584;2023-04-24T05:46:15;15.00;76.30
37782;DHT22;23621;50.878;4.584;2023-04-24T05:49:02;15.00;76.20
37782;DHT22;23621;50.878;4.584;2023-04-24T05:51:49;14.90;76.20
37782;DHT22;23621;50.878;4.584;2023-04-24T05:54:37;15.00;76.30
37782;DHT22;23621;50.878;4.584;2023-04-24T05:57:24;15.00;76.30
37782;DHT22;23621;50.878;4.584;2023-04-24T06:00:12;15.00;76.30
37782;DHT22;23621;50.878;4.584;2023-04-24T06:03:00;15.00;76.30
37782;DHT22;23621;50.878;4.584;2023-04-24T06:05:50;14.90;76.30
37782;DHT22;23621;50.878;4.584;2023-04-24T06:08:38;14.90;76.40
37782;DHT22;23621;50.878;4.584;2023-04-24T06:11:25;15.00;76.30
37782;DHT22;23621;50.878;4.584;2023-04-24T06:14:12;14.90;76.80
37782;DHT22;23621;50.878;4.584;2023-04-24T06:16:59;14.90;76.90
37782;DHT22;23621;50.878;4.584;2023-04-24T06:19:47;14.90;77.00
37782;DHT22;23621;50.878;4.584;2023-04-24T06:22:34;14.70;77.20
37782;DHT22;23621;50.878;4.584;2023-04-24T06:25:25;14.70;77.10
37782;DHT22;23621;50.878;4.584;2023-04-24T06:28:13;14.60;77.60
37782;DHT22;23621;50.878;4.584;2023-04-24T06:31:00;14.70;77.60
37782;DHT22;23621;50.878;4.584;2023-04-24T06:33:48;14.70;77.30
37782;DHT22;23621;50.878;4.584;2023-04-24T06:36:36;14.80;77.40
37782;DHT22;23621;50.878;4.584;2023-04-24T06:39:24;14.90;77.30
37782;DHT22;23621;50.878;4.584;2023-04-24T06:42:11;14.90;77.10
37782;DHT22;23621;50.878;4.584;2023-04-24T06:44:59;14.90;77.20
37782;DHT22;23621;50.878;4.584;2023-04-24T06:47:46;15.00;77.10
37782;DHT22;23621;50.878;4.584;2023-04-24T06:50:34;14.80;77.50
37782;DHT22;23621;50.878;4.584;2023-04-24T06:53:21;14.90;77.30
37782;DHT22;23621;50.878;4.584;2023-04-24T06:56:08;15.00;78.00
37782;DHT22;23621;50.878;4.584;2023-04-24T06:58:55;14.90;77.40
37782;DHT22;23621;50.878;4.584;2023-04-24T07:01:43;14.90;77.50
37782;DHT22;23621;50.878;4.584;2023-04-24T07:04:30;14.70;77.70
37782;DHT22;23621;50.878;4.584;2023-04-24T07:07:18;14.80;77.60
37782;DHT22;23621;50.878;4.584;2023-04-24T07:10:05;14.70;77.70
37782;DHT22;23621;50.878;4.584;2023-04-24T07:12:52;14.90;77.60
37782;DHT22;23621;50.878;4.584;2023-04-24T07:15:40;14.90;77.80
37782;DHT22;23621;50.878;4.584;2023-04-24T07:18:28;14.80;77.90
37782;DHT22;23621;50.878;4.584;2023-04-24T07:21:15;14.90;78.20
37782;DHT22;23621;50.878;4.584;2023-04-24T07:24:03;14.90;78.00
37782;DHT22;23621;50.878;4.584;2023-04-24T07:26:51;15.00;77.90
37782;DHT22;23621;50.878;4.584;2023-04-24T07:29:38;15.10;77.80
37782;DHT22;23621;50.878;4.584;2023-04-24T07:32:27;15.00;77.80
37782;DHT22;23621;50.878;4.584;2023-04-24T07:35:14;15.00;77.80
37782;DHT22;23621;50.878;4.584;2023-04-24T07:38:01;14.90;78.20
37782;DHT22;23621;50.878;4.584;2023-04-24T07:40:49;14.90;77.90
37782;DHT22;23621;50.878;4.584;2023-04-24T07:43:36;15.00;77.80
37782;DHT22;23621;50.878;4.584;2023-04-24T07:46:23;14.90;77.80
37782;DHT22;23621;50.878;4.584;2023-04-24T07:49:11;14.80;77.90
37782;DHT22;23621;50.878;4.584;2023-04-24T07:52:00;15.00;77.70
37782;DHT22;23621;50.878;4.584;2023-04-24T07:54:49;14.90;77.70
37782;DHT22;23621;50.878;4.584;2023-04-24T07:57:36;14.90;77.60
37782;DHT22;23621;50.878;4.584;2023-04-24T08:00:24;15.00;77.60
37782;DHT22;23621;50.878;4.584;2023-04-24T08:03:11;14.90;77.80
37782;DHT22;23621;50.878;4.584;2023-04-24T08:05:59;15.20;77.70
37782;DHT22;23621;50.878;4.584;2023-04-24T08:08:47;15.30;77.70
37782;DHT22;23621;50.878;4.584;2023-04-24T08:11:34;15.40;77.50
37782;DHT22;23621;50.878;4.584;2023-04-24T08:14:21;15.60;77.40
37782;DHT22;23621;50.878;4.584;2023-04-24T08:17:09;15.70;77.10
37782;DHT22;23621;50.878;4.584;2023-04-24T08:19:56;15.90;77.30
37782;DHT22;23621;50.878;4.584;2023-04-24T08:22:48;15.70;76.80
37782;DHT22;23621;50.878;4.584;2023-04-24T08:25:35;15.50;76.90
37782;DHT22;23621;50.878;4.584;2023-04-24T08:28:23;15.60;76.90
37782;DHT22;23621;50.878;4.584;2023-04-24T08:31:10;15.50;76.70
37782;DHT22;23621;50.878;4.584;2023-04-24T08:33:58;15.50;76.70
37782;DHT22;23621;50.878;4.584;2023-04-24T08:36:47;15.60;76.80
37782;DHT22;23621;50.878;4.584;2023-04-24T08:39:34;15.80;76.60
37782;DHT22;23621;50.878;4.584;2023-04-24T08:42:21;15.70;76.00
37782;DHT22;23621;50.878;4.584;2023-04-24T08:45:10;15.90;76.30
37782;DHT22;23621;50.878;4.584;2023-04-24T08:48:02;15.90;76.00
37782;DHT22;23621;50.878;4.584;2023-04-24T08:50:53;16.10;76.20
37782;DHT22;23621;50.878;4.584;2023-04-24T08:53:41;16.40;76.40
37782;DHT22;23621;50.878;4.584;2023-04-24T08:56:28;16.30;75.00
37782;DHT22;23621;50.878;4.584;2023-04-24T08:59:17;16.30;74.80
37782;DHT22;23621;50.878;4.584;2023-04-24T09:02:05;16.00;73.80
37782;DHT22;23621;50.878;4.584;2023-04-24T09:04:55;15.70;73.70
37782;DHT22;23621;50.878;4.584;2023-04-24T09:07:45;15.70;73.50
37782;DHT22;23621;50.878;4.584;2023-04-24T09:10:34;15.60;73.70
37782;DHT22;23621;50.878;4.584;2023-04-24T09:13:22;15.70;74.00
37782;DHT22;23621;50.878;4.584;2023-04-24T09:16:09;15.90;74.00
37782;DHT22;23621;50.878;4.584;2023-04-24T09:18:57;16.00;74.10
37782;DHT22;23621;50.878;4.584;2023-04-24T09:21:46;16.00;73.20
37782;DHT22;23621;50.878;4.584;2023-04-24T09:24:34;16.10;72.80
37782;DHT22;23621;50.878;4.584;2023-04-24T09:27:23;16.20;72.20
37782;DHT22;23621;50.878;4.584;2023-04-24T09:30:11;16.40;72.10
37782;DHT22;23621;50.878;4.584;2023-04-24T09:33:19;16.60;72.00
37782;DHT22;23621;50.878;4.584;2023-04-24T09:36:06;16.60;70.80
37782;DHT22;23621;50.878;4.584;2023-04-24T09:38:58;16.60;70.30
37782;DHT22;23621;50.878;4.584;2023-04-24T09:41:51;16.60;69.30
37782;DHT22;23621;50.878;4.584;2023-04-24T09:44:38;16.20;66.50
37782;DHT22;23621;50.878;4.584;2023-04-24T09:47:26;16.10;67.90
37782;DHT22;23621;50.878;4.584;2023-04-24T09:50:15;16.10;67.60
37782;DHT22;23621;50.878;4.584;2023-04-24T09:53:07;16.20;67.50
37782;DHT22;23621;50.878;4.584;2023-04-24T09:55:56;16.60;68.10
37782;DHT22;23621;50.878;4.584;2023-04-24T09:58:48;16.80;67.90
37782;DHT22;23621;50.878;4.584;2023-04-24T10:01:35;17.00;67.50
37782;DHT22;23621;50.878;4.584;2023-04-24T10:04:27;17.20;67.50
37782;DHT22;23621;50.878;4.584;2023-04-24T10:07:15;17.30;68.10
37782;DHT22;23621;50.878;4.584;2023-04-24T10:10:02;17.40;67.50
37782;DHT22;23621;50.878;4.584;2023-04-24T10:12:51;17.50;67.00
37782;DHT22;23621;50.878;4.584;2023-04-24T10:15:39;17.50;66.90
37782;DHT22;23621;50.878;4.584;2023-04-24T10:18:27;17.40;65.60
37782;DHT22;23621;50.878;4.584;2023-04-24T10:21:16;17.50;66.50
37782;DHT22;23621;50.878;4.584;2023-04-24T10:24:04;17.20;64.20
37782;DHT22;23621;50.878;4.584;2023-04-24T10:26:55;17.10;64.20
37782;DHT22;23621;50.878;4.584;2023-04-24T10:29:43;17.40;65.30
37782;DHT22;23621;50.878;4.584;2023-04-24T10:32:32;17.40;65.00
37782;DHT22;23621;50.878;4.584;2023-04-24T10:35:20;17.40;65.10
37782;DHT22;23621;50.878;4.584;2023-04-24T10:38:14;17.40;64.80
37782;DHT22;23621;50.878;4.584;2023-04-24T10:41:13;17.50;64.80
37782;DHT22;23621;50.878;4.584;2023-04-24T10:44:11;17.60;64.60
37782;DHT22;23621;50.878;4.584;2023-04-24T10:46:58;17.70;64.20
37782;DHT22;23621;50.878;4.584;2023-04-24T10:49:46;17.60;63.60
37782;DHT22;23621;50.878;4.584;2023-04-24T10:52:49;17.50;63.30
37782;DHT22;23621;50.878;4.584;2023-04-24T10:55:43;17.60;62.80
37782;DHT22;23621;50.878;4.584;2023-04-24T10:58:44;17.40;62.90
37782;DHT22;23621;50.878;4.584;2023-04-24T11:01:32;17.50;63.60
37782;DHT22;23621;50.878;4.584;2023-04-24T11:04:32;17.50;63.40
37782;DHT22;23621;50.878;4.584;2023-04-24T11:07:20;17.60;63.30
37782;DHT22;23621;50.878;4.584;2023-04-24T11:10:08;17.60;63.30
37782;DHT22;23621;50.878;4.584;2023-04-24T11:12:55;17.70;63.20
37782;DHT22;23621;50.878;4.584;2023-04-24T11:15:42;17.70;63.20
37782;DHT22;23621;50.878;4.584;2023-04-24T11:18:37;17.80;62.90
37782;DHT22;23621;50.878;4.584;2023-04-24T11:21:31;17.90;62.90
37782;DHT22;23621;50.878;4.584;2023-04-24T11:27:47;18.10;63.00
37782;DHT22;23621;50.878;4.584;2023-04-24T11:30:40;18.20;63.10
37782;DHT22;23621;50.878;4.584;2023-04-24T11:33:27;18.20;62.80
37782;DHT22;23621;50.878;4.584;2023-04-24T11:36:14;18.10;62.70
37782;DHT22;23621;50.878;4.584;2023-04-24T11:39:02;18.10;62.80
37782;DHT22;23621;50.878;4.584;2023-04-24T11:41:50;17.80;62.00
37782;DHT22;23621;50.878;4.584;2023-04-24T11:44:38;17.90;62.30
37782;DHT22;23621;50.878;4.584;2023-04-24T11:47:31;17.80;61.60
37782;DHT22;23621;50.878;4.584;2023-04-24T11:50:25;17.90;62.30
37782;DHT22;23621;50.878;4.584;2023-04-24T11:53:13;18.00;61.80
37782;DHT22;23621;50.878;4.584;2023-04-24T11:56:03;18.00;62.10
37782;DHT22;23621;50.878;4.584;2023-04-24T11:58:54;17.90;61.90
37782;DHT22;23621;50.878;4.584;2023-04-24T12:01:45;17.70;60.90
37782;DHT22;23621;50.878;4.584;2023-04-24T12:04:41;17.70;61.30
37782;DHT22;23621;50.878;4.584;2023-04-24T12:07:30;17.90;61.80
37782;DHT22;23621;50.878;4.584;2023-04-24T12:10:29;17.80;61.40
37782;DHT22;23621;50.878;4.584;2023-04-24T12:13:16;17.80;61.00
37782;DHT22;23621;50.878;4.584;2023-04-24T12:16:03;17.70;60.90
37782;DHT22;23621;50.878;4.584;2023-04-24T12:18:52;17.80;61.10
37782;DHT22;23621;50.878;4.584;2023-04-24T12:21:39;17.80;60.70
37782;DHT22;23621;50.878;4.584;2023-04-24T12:24:26;17.70;60.50
37782;DHT22;23621;50.878;4.584;2023-04-24T12:27:19;17.80;60.40
37782;DHT22;23621;50.878;4.584;2023-04-24T12:30:14;17.90;60.60
37782;DHT22;23621;50.878;4.584;2023-04-24T12:33:03;18.00;61.70
37782;DHT22;23621;50.878;4.584;2023-04-24T12:35:54;17.70;59.70
37782;DHT22;23621;50.878;4.584;2023-04-24T12:38:43;17.60;60.10
37782;DHT22;23621;50.878;4.584;2023-04-24T12:41:33;17.60;60.00
37782;DHT22;23621;50.878;4.584;2023-04-24T12:44:20;17.80;60.50
37782;DHT22;23621;50.878;4.584;2023-04-24T12:47:07;18.10;60.80
37782;DHT22;23621;50.878;4.584;2023-04-24T12:49:56;18.20;61.00
37782;DHT22;23621;50.878;4.584;2023-04-24T12:52:44;18.30;60.40
37782;DHT22;23621;50.878;4.584;2023-04-24T12:55:32;18.30;60.30
37782;DHT22;23621;50.878;4.584;2023-04-24T12:58:20;18.30;59.40
37782;DHT22;23621;50.878;4.584;2023-04-24T13:01:07;18.40;60.30
37782;DHT22;23621;50.878;4.584;2023-04-24T13:03:54;18.50;60.60
37782;DHT22;23621;50.878;4.584;2023-04-24T13:06:42;18.40;60.20
37782;DHT22;23621;50.878;4.584;2023-04-24T13:09:30;18.40;59.50
37782;DHT22;23621;50.878;4.584;2023-04-24T13:12:17;18.50;59.50
37782;DHT22;23621;50.878;4.584;2023-04-24T13:15:06;18.50;59.00
37782;DHT22;23621;50.878;4.584;2023-04-24T13:17:53;18.80;60.70
37782;DHT22;23621;50.878;4.584;2023-04-24T13:20:40;19.10;59.90
37782;DHT22;23621;50.878;4.584;2023-04-24T13:23:28;19.40;59.80
37782;DHT22;23621;50.878;4.584;2023-04-24T13:26:16;19.60;59.70
37782;DHT22;23621;50.878;4.584;2023-04-24T13:29:03;19.40;58.30
37782;DHT22;23621;50.878;4.584;2023-04-24T13:31:51;19.50;58.70
37782;DHT22;23621;50.878;4.584;2023-04-24T13:34:38;19.50;58.00
37782;DHT22;23621;50.878;4.584;2023-04-24T13:37:25;19.50;58.10
37782;DHT22;23621;50.878;4.584;2023-04-24T13:40:13;19.70;59.00
37782;DHT22;23621;50.878;4.584;2023-04-24T13:43:00;19.70;58.30
37782;DHT22;23621;50.878;4.584;2023-04-24T13:45:47;19.90;58.70
37782;DHT22;23621;50.878;4.584;2023-04-24T13:48:35;19.90;57.90
37782;DHT22;23621;50.878;4.584;2023-04-24T13:51:23;19.80;56.70
37782;DHT22;23621;50.878;4.584;2023-04-24T13:54:10;19.70;56.70
37782;DHT22;23621;50.878;4.584;2023-04-24T13:56:58;19.50;56.20
37782;DHT22;23621;50.878;4.584;2023-04-24T13:59:45;19.70;57.70
37782;DHT22;23621;50.878;4.584;2023-04-24T14:02:33;19.80;57.80
37782;DHT22;23621;50.878;4.584;2023-04-24T14:05:21;19.70;57.00
37782;DHT22;23621;50.878;4.584;2023-04-24T14:08:09;20.00;57.60
37782;DHT22;23621;50.878;4.584;2023-04-24T14:10:56;20.00;57.70
37782;DHT22;23621;50.878;4.584;2023-04-24T14:13:44;20.10;57.60
37782;DHT22;23621;50.878;4.584;2023-04-24T14:16:32;20.00;56.60
37782;DHT22;23621;50.878;4.584;2023-04-24T14:19:20;20.10;57.50
37782;DHT22;23621;50.878;4.584;2023-04-24T14:22:07;20.20;57.60
37782;DHT22;23621;50.878;4.584;2023-04-24T14:24:55;20.40;57.40
37782;DHT22;23621;50.878;4.584;2023-04-24T14:27:42;20.50;56.80
37782;DHT22;23621;50.878;4.584;2023-04-24T14:30:29;20.60;56.90
37782;DHT22;23621;50.878;4.584;2023-04-24T14:33:17;20.50;55.80
37782;DHT22;23621;50.878;4.584;2023-04-24T14:36:05;20.50;55.90
37782;DHT22;23621;50.878;4.584;2023-04-24T14:38:52;20.40;55.80
37782;DHT22;23621;50.878;4.584;2023-04-24T14:41:39;20.00;55.50
37782;DHT22;23621;50.878;4.584;2023-04-24T14:44:27;19.90;56.30
37782;DHT22;23621;50.878;4.584;2023-04-24T14:47:14;19.80;56.10
37782;DHT22;23621;50.878;4.584;2023-04-24T14:50:02;19.80;56.30
37782;DHT22;23621;50.878;4.584;2023-04-24T14:52:49;19.80;56.90
37782;DHT22;23621;50.878;4.584;2023-04-24T14:55:37;19.80;57.00
37782;DHT22;23621;50.878;4.584;2023-04-24T14:58:25;19.80;56.50
37782;DHT22;23621;50.878;4.584;2023-04-24T15:01:12;19.70;56.20
37782;DHT22;23621;50.878;4.584;2023-04-24T15:04:00;19.70;55.60
37782;DHT22;23621;50.878;4.584;2023-04-24T15:06:47;19.70;56.00
37782;DHT22;23621;50.878;4.584;2023-04-24T15:09:34;19.60;55.80
37782;DHT22;23621;50.878;4.584;2023-04-24T15:12:22;19.40;56.10
37782;DHT22;23621;50.878;4.584;2023-04-24T15:15:09;19.50;56.40
37782;DHT22;23621;50.878;4.584;2023-04-24T15:17:57;19.50;56.30
37782;DHT22;23621;50.878;4.584;2023-04-24T15:20:44;19.60;56.70
37782;DHT22;23621;50.878;4.584;2023-04-24T15:23:31;19.60;56.30
37782;DHT22;23621;50.878;4.584;2023-04-24T15:26:18;19.60;55.90
37782;DHT22;23621;50.878;4.584;2023-04-24T15:29:06;19.70;55.50
37782;DHT22;23621;50.878;4.584;2023-04-24T15:31:54;19.70;54.80
37782;DHT22;23621;50.878;4.584;2023-04-24T15:34:41;19.60;54.90
37782;DHT22;23621;50.878;4.584;2023-04-24T15:37:28;19.60;54.70
37782;DHT22;23621;50.878;4.584;2023-04-24T15:40:15;19.40;54.90
37782;DHT22;23621;50.878;4.584;2023-04-24T15:43:02;19.30;54.90
37782;DHT22;23621;50.878;4.584;2023-04-24T15:45:50;19.30;54.90
37782;DHT22;23621;50.878;4.584;2023-04-24T15:48:37;19.20;54.20
37782;DHT22;23621;50.878;4.584;2023-04-24T15:51:27;19.10;55.10
37782;DHT22;23621;50.878;4.584;2023-04-24T15:54:14;19.20;55.50
37782;DHT22;23621;50.878;4.584;2023-04-24T15:57:01;19.20;55.40
37782;DHT22;23621;50.878;4.584;2023-04-24T15:59:49;19.20;55.30
37782;DHT22;23621;50.878;4.584;2023-04-24T16:02:36;19.30;55.50
37782;DHT22;23621;50.878;4.584;2023-04-24T16:05:24;19.30;55.50
37782;DHT22;23621;50.878;4.584;2023-04-24T16:08:11;19.30;55.70
37782;DHT22;23621;50.878;4.584;2023-04-24T16:11:01;19.20;55.80
37782;DHT22;23621;50.878;4.584;2023-04-24T16:13:48;19.20;56.20
37782;DHT22;23621;50.878;4.584;2023-04-24T16:16:36;19.20;56.40
37782;DHT22;23621;50.878;4.584;2023-04-24T16:19:23;19.10;56.50
37782;DHT22;23621;50.878;4.584;2023-04-24T16:22:11;19.00;56.80
37782;DHT22;23621;50.878;4.584;2023-04-24T16:24:58;19.10;57.00
37782;DHT22;23621;50.878;4.584;2023-04-24T16:27:46;19.20;56.80
37782;DHT22;23621;50.878;4.584;2023-04-24T16:30:34;19.20;56.20
37782;DHT22;23621;50.878;4.584;2023-04-24T16:33:23;19.20;56.10
37782;DHT22;23621;50.878;4.584;2023-04-24T16:36:12;19.10;55.90
37782;DHT22;23621;50.878;4.584;2023-04-24T16:38:59;19.20;56.10
37782;DHT22;23621;50.878;4.584;2023-04-24T16:41:51;19.20;56.10
37782;DHT22;23621;50.878;4.584;2023-04-24T16:44:39;19.30;56.10
37782;DHT22;23621;50.878;4.584;2023-04-24T16:47:27;19.30;56.30
37782;DHT22;23621;50.878;4.584;2023-04-24T16:50:14;19.20;56.30
37782;DHT22;23621;50.878;4.584;2023-04-24T16:53:02;19.20;56.20
37782;DHT22;23621;50.878;4.584;2023-04-24T16:55:49;19.20;55.70
37782;DHT22;23621;50.878;4.584;2023-04-24T16:58:37;19.10;55.50
37782;DHT22;23621;50.878;4.584;2023-04-24T17:01:24;19.20;55.20
37782;DHT22;23621;50.878;4.584;2023-04-24T17:04:12;19.00;54.80
37782;DHT22;23621;50.878;4.584;2023-04-24T17:06:59;19.00;55.60
37782;DHT22;23621;50.878;4.584;2023-04-24T17:09:47;19.00;55.50
37782;DHT22;23621;50.878;4.584;2023-04-24T17:12:34;19.20;55.50
37782;DHT22;23621;50.878;4.584;2023-04-24T17:15:21;19.30;55.20
37782;DHT22;23621;50.878;4.584;2023-04-24T17:18:09;19.50;55.10
37782;DHT22;23621;50.878;4.584;2023-04-24T17:20:56;19.50;54.70
37782;DHT22;23621;50.878;4.584;2023-04-24T17:23:44;19.50;54.40
37782;DHT22;23621;50.878;4.584;2023-04-24T17:26:31;19.50;54.20
37782;DHT22;23621;50.878;4.584;2023-04-24T17:29:18;19.50;54.30
37782;DHT22;23621;50.878;4.584;2023-04-24T17:32:05;19.40;54.10
37782;DHT22;23621;50.878;4.584;2023-04-24T17:34:53;19.40;54.20
37782;DHT22;23621;50.878;4.584;2023-04-24T17:37:40;19.20;53.60
37782;DHT22;23621;50.878;4.584;2023-04-24T17:40:27;19.10;54.50
37782;DHT22;23621;50.878;4.584;2023-04-24T17:43:14;19.10;55.00
37782;DHT22;23621;50.878;4.584;2023-04-24T17:46:04;19.00;55.10